sensor_id;sensor_type;location;lat;lon;timestamp;P1;durP1;ratioP1;P2;durP2;ratioP2
72194;SDS011;60095;50.180;9.032;2022-08-11T00:00:31;2.70;;;2.38;;
72194;SDS011;60095;50.180;9.032;2022-08-11T00:02:59;2.97;;;1.92;;
72194;SDS011;60095;50.180;9.032;2022-08-11T00:05:30;2.30;;;1.58;;
72194;SDS011;60095;50.180;9.032;2022-08-11T00:07:57;2.22;;;1.67;;
72194;SDS011;60095;50.180;9.032;2022-08-11T00:10:24;3.20;;;1.75;;
72194;SDS011;60095;50.180;9.032;2022-08-11T00:12:52;1.90;;;1.75;;
72194;SDS011;60095;50.180;9.032;2022-08-11T00:15:20;2.65;;;2.20;;
72194;SDS011;60095;50.180;9.032;2022-08-11T00:17:47;4.63;;;2.28;;
72194;SDS011;60095;50.180;9.032;2022-08-11T00:20:14;3.00;;;1.70;;
72194;SDS011;60095;50.180;9.032;2022-08-11T00:22:43;2.80;;;1.95;;
72194;SDS011;60095;50.180;9.032;2022-08-11T00:25:11;2.28;;;2.03;;
72194;SDS011;60095;50.180;9.032;2022-08-11T00:27:38;6.72;;;2.40;;
72194;SDS011;60095;50.180;9.032;2022-08-11T00:30:05;3.45;;;2.25;;
72194;SDS011;60095;50.180;9.032;2022-08-11T00:32:32;2.75;;;2.55;;
72194;SDS011;60095;50.180;9.032;2022-08-11T00:34:59;2.58;;;2.38;;
72194;SDS011;60095;50.180;9.032;2022-08-11T00:37:26;2.45;;;2.25;;
72194;SDS011;60095;50.180;9.032;2022-08-11T00:39:55;3.33;;;2.35;;
72194;SDS011;60095;50.180;9.032;2022-08-11T00:42:25;2.63;;;2.42;;
72194;SDS011;60095;50.180;9.032;2022-08-11T00:44:55;1.10;;;1.00;;
72194;SDS011;60095;50.180;9.032;2022-08-11T00:47:34;1.92;;;1.63;;
72194;SDS011;60095;50.180;9.032;2022-08-11T00:50:09;3.35;;;2.47;;
72194;SDS011;60095;50.180;9.032;2022-08-11T00:52:43;6.20;;;2.80;;
72194;SDS011;60095;50.180;9.032;2022-08-11T00:55:30;3.33;;;2.33;;
72194;SDS011;60095;50.180;9.032;2022-08-11T01:00:48;3.78;;;2.80;;
72194;SDS011;60095;50.180;9.032;2022-08-11T01:03:19;3.15;;;2.53;;
72194;SDS011;60095;50.180;9.032;2022-08-11T01:06:02;6.25;;;3.53;;
72194;SDS011;60095;50.180;9.032;2022-08-11T01:08:41;3.05;;;2.38;;
72194;SDS011;60095;50.180;9.032;2022-08-11T01:11:36;1.98;;;1.88;;
72194;SDS011;60095;50.180;9.032;2022-08-11T01:17:04;2.95;;;2.38;;
72194;SDS011;60095;50.180;9.032;2022-08-11T01:19:43;3.78;;;3.28;;
72194;SDS011;60095;50.180;9.032;2022-08-11T01:27:47;3.17;;;2.58;;
72194;SDS011;60095;50.180;9.032;2022-08-11T01:30:39;2.95;;;2.67;;
72194;SDS011;60095;50.180;9.032;2022-08-11T01:33:41;4.35;;;2.72;;
72194;SDS011;60095;50.180;9.032;2022-08-11T01:41:58;3.40;;;2.85;;
72194;SDS011;60095;50.180;9.032;2022-08-11T01:44:51;3.97;;;1.92;;
72194;SDS011;60095;50.180;9.032;2022-08-11T01:47:25;1.58;;;1.48;;
72194;SDS011;60095;50.180;9.032;2022-08-11T01:50:23;4.05;;;2.63;;
72194;SDS011;60095;50.180;9.032;2022-08-11T01:52:57;3.25;;;2.22;;
72194;SDS011;60095;50.180;9.032;2022-08-11T01:55:27;4.40;;;2.42;;
72194;SDS011;60095;50.180;9.032;2022-08-11T01:58:03;3.03;;;2.30;;
72194;SDS011;60095;50.180;9.032;2022-08-11T02:00:31;9.77;;;2.67;;
72194;SDS011;60095;50.180;9.032;2022-08-11T02:03:07;4.55;;;3.05;;
72194;SDS011;60095;50.180;9.032;2022-08-11T02:05:42;3.47;;;2.95;;
72194;SDS011;60095;50.180;9.032;2022-08-11T02:08:10;2.78;;;2.28;;
72194;SDS011;60095;50.180;9.032;2022-08-11T02:10:43;2.17;;;1.92;;
72194;SDS011;60095;50.180;9.032;2022-08-11T02:13:34;4.38;;;2.10;;
72194;SDS011;60095;50.180;9.032;2022-08-11T02:16:09;4.25;;;2.03;;
72194;SDS011;60095;50.180;9.032;2022-08-11T02:18:39;3.70;;;2.67;;
72194;SDS011;60095;50.180;9.032;2022-08-11T02:21:26;2.72;;;2.35;;
72194;SDS011;60095;50.180;9.032;2022-08-11T02:24:13;3.28;;;2.35;;
72194;SDS011;60095;50.180;9.032;2022-08-11T02:26:43;3.20;;;2.58;;
72194;SDS011;60095;50.180;9.032;2022-08-11T02:29:14;3.10;;;2.22;;
72194;SDS011;60095;50.180;9.032;2022-08-11T02:31:49;2.22;;;2.03;;
72194;SDS011;60095;50.180;9.032;2022-08-11T02:34:38;2.88;;;2.47;;
72194;SDS011;60095;50.180;9.032;2022-08-11T02:37:09;1.98;;;1.80;;
72194;SDS011;60095;50.180;9.032;2022-08-11T02:39:42;3.40;;;3.00;;
72194;SDS011;60095;50.180;9.032;2022-08-11T02:42:15;4.00;;;2.58;;
72194;SDS011;60095;50.180;9.032;2022-08-11T02:44:55;2.72;;;2.53;;
72194;SDS011;60095;50.180;9.032;2022-08-11T02:47:30;2.45;;;2.17;;
72194;SDS011;60095;50.180;9.032;2022-08-11T02:49:57;3.20;;;2.63;;
72194;SDS011;60095;50.180;9.032;2022-08-11T02:52:29;3.30;;;2.15;;
72194;SDS011;60095;50.180;9.032;2022-08-11T02:55:12;3.22;;;2.40;;
72194;SDS011;60095;50.180;9.032;2022-08-11T02:57:40;4.80;;;3.08;;
72194;SDS011;60095;50.180;9.032;2022-08-11T03:00:10;2.53;;;2.22;;
72194;SDS011;60095;50.180;9.032;2022-08-11T03:02:40;2.75;;;2.40;;
72194;SDS011;60095;50.180;9.032;2022-08-11T03:08:03;3.13;;;2.70;;
72194;SDS011;60095;50.180;9.032;2022-08-11T03:10:32;4.60;;;3.08;;
72194;SDS011;60095;50.180;9.032;2022-08-11T03:13:05;3.70;;;3.38;;
72194;SDS011;60095;50.180;9.032;2022-08-11T03:15:59;2.95;;;2.75;;
72194;SDS011;60095;50.180;9.032;2022-08-11T03:18:48;3.05;;;2.63;;
72194;SDS011;60095;50.180;9.032;2022-08-11T03:21:22;5.28;;;2.88;;
72194;SDS011;60095;50.180;9.032;2022-08-11T03:23:52;2.80;;;2.60;;
72194;SDS011;60095;50.180;9.032;2022-08-11T03:26:25;2.05;;;1.48;;
72194;SDS011;60095;50.180;9.032;2022-08-11T03:28:56;6.00;;;2.47;;
72194;SDS011;60095;50.180;9.032;2022-08-11T03:31:28;3.80;;;3.35;;
72194;SDS011;60095;50.180;9.032;2022-08-11T03:33:58;5.00;;;3.70;;
72194;SDS011;60095;50.180;9.032;2022-08-11T03:36:41;4.85;;;3.30;;
72194;SDS011;60095;50.180;9.032;2022-08-11T03:39:17;12.13;;;2.83;;
72194;SDS011;60095;50.180;9.032;2022-08-11T03:41:48;2.92;;;2.50;;
72194;SDS011;60095;50.180;9.032;2022-08-11T03:44:24;3.72;;;2.00;;
72194;SDS011;60095;50.180;9.032;2022-08-11T03:47:08;3.45;;;2.90;;
72194;SDS011;60095;50.180;9.032;2022-08-11T03:49:40;12.93;;;3.30;;
72194;SDS011;60095;50.180;9.032;2022-08-11T03:52:12;3.78;;;2.80;;
72194;SDS011;60095;50.180;9.032;2022-08-11T03:54:42;6.60;;;3.72;;
72194;SDS011;60095;50.180;9.032;2022-08-11T04:00:16;3.47;;;2.60;;
72194;SDS011;60095;50.180;9.032;2022-08-11T04:05:59;3.72;;;2.53;;
72194;SDS011;60095;50.180;9.032;2022-08-11T04:11:26;4.05;;;3.65;;
72194;SDS011;60095;50.180;9.032;2022-08-11T04:14:03;2.75;;;2.55;;
72194;SDS011;60095;50.180;9.032;2022-08-11T04:16:56;4.05;;;2.67;;
72194;SDS011;60095;50.180;9.032;2022-08-11T04:19:39;3.67;;;2.35;;
72194;SDS011;60095;50.180;9.032;2022-08-11T04:22:20;10.20;;;3.50;;
72194;SDS011;60095;50.180;9.032;2022-08-11T04:24:57;6.35;;;4.65;;
72194;SDS011;60095;50.180;9.032;2022-08-11T04:27:34;5.03;;;2.97;;
72194;SDS011;60095;50.180;9.032;2022-08-11T04:30:09;3.40;;;2.15;;
72194;SDS011;60095;50.180;9.032;2022-08-11T04:32:48;6.15;;;3.47;;
72194;SDS011;60095;50.180;9.032;2022-08-11T04:35:23;3.75;;;2.50;;
72194;SDS011;60095;50.180;9.032;2022-08-11T04:41:10;4.65;;;3.38;;
72194;SDS011;60095;50.180;9.032;2022-08-11T04:49:24;3.10;;;2.72;;
72194;SDS011;60095;50.180;9.032;2022-08-11T04:58:14;5.85;;;2.85;;
72194;SDS011;60095;50.180;9.032;2022-08-11T05:01:02;2.67;;;2.47;;
72194;SDS011;60095;50.180;9.032;2022-08-11T05:11:52;3.30;;;2.75;;
72194;SDS011;60095;50.180;9.032;2022-08-11T05:14:28;4.05;;;2.33;;
72194;SDS011;60095;50.180;9.032;2022-08-11T05:17:13;2.33;;;2.10;;
72194;SDS011;60095;50.180;9.032;2022-08-11T05:19:59;2.40;;;2.20;;
72194;SDS011;60095;50.180;9.032;2022-08-11T05:25:28;2.58;;;2.38;;
72194;SDS011;60095;50.180;9.032;2022-08-11T05:28:14;3.80;;;3.05;;
72194;SDS011;60095;50.180;9.032;2022-08-11T05:31:04;2.78;;;2.42;;
72194;SDS011;60095;50.180;9.032;2022-08-11T05:33:51;2.30;;;2.05;;
72194;SDS011;60095;50.180;9.032;2022-08-11T05:36:36;4.47;;;2.53;;
72194;SDS011;60095;50.180;9.032;2022-08-11T05:39:07;2.72;;;2.38;;
72194;SDS011;60095;50.180;9.032;2022-08-11T05:41:55;2.42;;;1.77;;
72194;SDS011;60095;50.180;9.032;2022-08-11T05:44:42;2.72;;;1.95;;
72194;SDS011;60095;50.180;9.032;2022-08-11T05:47:29;2.38;;;2.05;;
72194;SDS011;60095;50.180;9.032;2022-08-11T05:50:13;2.15;;;1.95;;
72194;SDS011;60095;50.180;9.032;2022-08-11T05:52:58;1.88;;;1.73;;
72194;SDS011;60095;50.180;9.032;2022-08-11T05:55:42;2.45;;;2.22;;
72194;SDS011;60095;50.180;9.032;2022-08-11T06:00:52;4.15;;;3.60;;
72194;SDS011;60095;50.180;9.032;2022-08-11T06:03:21;2.70;;;2.05;;
72194;SDS011;60095;50.180;9.032;2022-08-11T06:05:50;16.60;;;4.38;;
72194;SDS011;60095;50.180;9.032;2022-08-11T06:08:16;2.75;;;1.77;;
72194;SDS011;60095;50.180;9.032;2022-08-11T06:10:43;13.90;;;2.63;;
72194;SDS011;60095;50.180;9.032;2022-08-11T06:13:13;3.47;;;2.35;;
72194;SDS011;60095;50.180;9.032;2022-08-11T06:15:42;6.25;;;2.58;;
72194;SDS011;60095;50.180;9.032;2022-08-11T06:18:09;2.88;;;2.40;;
72194;SDS011;60095;50.180;9.032;2022-08-11T06:20:44;4.25;;;1.88;;
72194;SDS011;60095;50.180;9.032;2022-08-11T06:23:10;3.13;;;2.92;;
72194;SDS011;60095;50.180;9.032;2022-08-11T06:25:39;4.88;;;1.95;;
72194;SDS011;60095;50.180;9.032;2022-08-11T06:28:06;3.45;;;1.80;;
72194;SDS011;60095;50.180;9.032;2022-08-11T06:30:33;4.90;;;2.70;;
72194;SDS011;60095;50.180;9.032;2022-08-11T06:33:03;2.95;;;2.22;;
72194;SDS011;60095;50.180;9.032;2022-08-11T06:35:33;3.17;;;2.00;;
72194;SDS011;60095;50.180;9.032;2022-08-11T06:38:05;3.33;;;2.35;;
72194;SDS011;60095;50.180;9.032;2022-08-11T06:40:34;2.55;;;2.15;;
72194;SDS011;60095;50.180;9.032;2022-08-11T06:43:03;8.27;;;2.40;;
72194;SDS011;60095;50.180;9.032;2022-08-11T06:45:32;3.78;;;3.08;;
72194;SDS011;60095;50.180;9.032;2022-08-11T06:48:02;5.45;;;2.28;;
72194;SDS011;60095;50.180;9.032;2022-08-11T06:50:30;2.10;;;1.75;;
72194;SDS011;60095;50.180;9.032;2022-08-11T06:53:17;3.42;;;2.15;;
72194;SDS011;60095;50.180;9.032;2022-08-11T06:55:44;2.20;;;1.63;;
72194;SDS011;60095;50.180;9.032;2022-08-11T06:58:30;2.70;;;2.03;;
72194;SDS011;60095;50.180;9.032;2022-08-11T07:01:15;4.43;;;1.58;;
72194;SDS011;60095;50.180;9.032;2022-08-11T07:03:43;2.78;;;1.73;;
72194;SDS011;60095;50.180;9.032;2022-08-11T07:06:14;4.43;;;1.42;;
72194;SDS011;60095;50.180;9.032;2022-08-11T07:08:52;2.30;;;1.30;;
72194;SDS011;60095;50.180;9.032;2022-08-11T07:11:47;1.92;;;1.50;;
72194;SDS011;60095;50.180;9.032;2022-08-11T07:14:34;11.53;;;2.70;;
72194;SDS011;60095;50.180;9.032;2022-08-11T07:17:27;16.38;;;1.23;;
72194;SDS011;60095;50.180;9.032;2022-08-11T07:19:54;1.60;;;0.98;;
72194;SDS011;60095;50.180;9.032;2022-08-11T07:22:34;5.60;;;1.40;;
72194;SDS011;60095;50.180;9.032;2022-08-11T07:25:20;2.47;;;1.85;;
72194;SDS011;60095;50.180;9.032;2022-08-11T07:28:06;4.13;;;1.58;;
72194;SDS011;60095;50.180;9.032;2022-08-11T07:30:53;3.13;;;1.60;;
72194;SDS011;60095;50.180;9.032;2022-08-11T07:33:24;4.85;;;2.40;;
72194;SDS011;60095;50.180;9.032;2022-08-11T07:35:55;15.45;;;1.85;;
72194;SDS011;60095;50.180;9.032;2022-08-11T07:38:23;3.17;;;1.55;;
72194;SDS011;60095;50.180;9.032;2022-08-11T07:41:08;1.45;;;1.35;;
72194;SDS011;60095;50.180;9.032;2022-08-11T07:43:35;3.65;;;1.98;;
72194;SDS011;60095;50.180;9.032;2022-08-11T07:46:02;2.42;;;2.10;;
72194;SDS011;60095;50.180;9.032;2022-08-11T07:48:46;12.60;;;2.13;;
72194;SDS011;60095;50.180;9.032;2022-08-11T07:51:30;2.08;;;1.45;;
72194;SDS011;60095;50.180;9.032;2022-08-11T07:54:14;1.50;;;1.17;;
72194;SDS011;60095;50.180;9.032;2022-08-11T07:56:42;1.20;;;1.00;;
72194;SDS011;60095;50.180;9.032;2022-08-11T07:59:10;1.10;;;1.00;;
72194;SDS011;60095;50.180;9.032;2022-08-11T08:01:54;1.77;;;1.38;;
72194;SDS011;60095;50.180;9.032;2022-08-11T08:04:39;3.78;;;1.98;;
72194;SDS011;60095;50.180;9.032;2022-08-11T08:07:23;1.42;;;1.33;;
72194;SDS011;60095;50.180;9.032;2022-08-11T08:10:08;1.75;;;1.65;;
72194;SDS011;60095;50.180;9.032;2022-08-11T08:12:53;2.15;;;1.30;;
72194;SDS011;60095;50.180;9.032;2022-08-11T08:15:38;4.88;;;2.20;;
72194;SDS011;60095;50.180;9.032;2022-08-11T08:18:22;1.40;;;1.20;;
72194;SDS011;60095;50.180;9.032;2022-08-11T08:20:49;2.40;;;1.98;;
72194;SDS011;60095;50.180;9.032;2022-08-11T08:23:16;6.53;;;1.77;;
72194;SDS011;60095;50.180;9.032;2022-08-11T08:25:57;1.98;;;1.52;;
72194;SDS011;60095;50.180;9.032;2022-08-11T08:28:26;1.73;;;1.20;;
72194;SDS011;60095;50.180;9.032;2022-08-11T08:30:53;5.03;;;1.88;;
72194;SDS011;60095;50.180;9.032;2022-08-11T08:33:20;1.30;;;0.95;;
72194;SDS011;60095;50.180;9.032;2022-08-11T08:35:48;1.90;;;1.25;;
72194;SDS011;60095;50.180;9.032;2022-08-11T08:38:15;2.38;;;1.15;;
72194;SDS011;60095;50.180;9.032;2022-08-11T08:40:42;4.43;;;1.33;;
72194;SDS011;60095;50.180;9.032;2022-08-11T08:43:12;1.48;;;1.17;;
72194;SDS011;60095;50.180;9.032;2022-08-11T08:45:42;2.95;;;1.58;;
72194;SDS011;60095;50.180;9.032;2022-08-11T08:48:10;1.50;;;1.20;;
72194;SDS011;60095;50.180;9.032;2022-08-11T08:50:50;3.25;;;0.93;;
72194;SDS011;60095;50.180;9.032;2022-08-11T08:53:35;2.47;;;1.20;;
72194;SDS011;60095;50.180;9.032;2022-08-11T08:56:04;5.68;;;1.25;;
72194;SDS011;60095;50.180;9.032;2022-08-11T08:58:32;2.50;;;1.30;;
72194;SDS011;60095;50.180;9.032;2022-08-11T09:01:01;1.20;;;1.10;;
72194;SDS011;60095;50.180;9.032;2022-08-11T09:03:27;6.30;;;0.93;;
72194;SDS011;60095;50.180;9.032;2022-08-11T09:05:54;2.35;;;1.23;;
72194;SDS011;60095;50.180;9.032;2022-08-11T09:08:21;1.45;;;0.80;;
72194;SDS011;60095;50.180;9.032;2022-08-11T09:10:48;1.88;;;1.10;;
72194;SDS011;60095;50.180;9.032;2022-08-11T09:13:35;2.42;;;0.85;;
72194;SDS011;60095;50.180;9.032;2022-08-11T09:16:03;1.48;;;1.08;;
72194;SDS011;60095;50.180;9.032;2022-08-11T09:18:30;2.47;;;0.80;;
72194;SDS011;60095;50.180;9.032;2022-08-11T09:20:57;1.10;;;0.60;;
72194;SDS011;60095;50.180;9.032;2022-08-11T09:23:24;0.82;;;0.50;;
72194;SDS011;60095;50.180;9.032;2022-08-11T09:26:17;2.45;;;1.55;;
72194;SDS011;60095;50.180;9.032;2022-08-11T09:29:01;2.58;;;0.77;;
72194;SDS011;60095;50.180;9.032;2022-08-11T09:31:30;1.55;;;0.80;;
72194;SDS011;60095;50.180;9.032;2022-08-11T09:33:58;2.53;;;1.42;;
72194;SDS011;60095;50.180;9.032;2022-08-11T09:36:25;1.92;;;1.08;;
72194;SDS011;60095;50.180;9.032;2022-08-11T09:39:10;1.42;;;1.08;;
72194;SDS011;60095;50.180;9.032;2022-08-11T09:41:55;1.88;;;1.35;;
72194;SDS011;60095;50.180;9.032;2022-08-11T09:44:21;1.70;;;1.00;;
72194;SDS011;60095;50.180;9.032;2022-08-11T09:47:07;2.22;;;1.10;;
72194;SDS011;60095;50.180;9.032;2022-08-11T09:49:39;10.53;;;2.77;;
72194;SDS011;60095;50.180;9.032;2022-08-11T09:52:06;0.60;;;0.40;;
72194;SDS011;60095;50.180;9.032;2022-08-11T09:54:33;3.70;;;1.60;;
72194;SDS011;60095;50.180;9.032;2022-08-11T09:57:00;1.90;;;0.70;;
72194;SDS011;60095;50.180;9.032;2022-08-11T09:59:52;1.52;;;1.15;;
72194;SDS011;60095;50.180;9.032;2022-08-11T10:02:22;1.35;;;1.05;;
72194;SDS011;60095;50.180;9.032;2022-08-11T10:04:50;3.70;;;1.63;;
72194;SDS011;60095;50.180;9.032;2022-08-11T10:07:18;1.58;;;1.02;;
72194;SDS011;60095;50.180;9.032;2022-08-11T10:09:45;8.57;;;0.98;;
72194;SDS011;60095;50.180;9.032;2022-08-11T10:12:15;1.80;;;1.15;;
72194;SDS011;60095;50.180;9.032;2022-08-11T10:14:45;2.50;;;1.23;;
72194;SDS011;60095;50.180;9.032;2022-08-11T10:17:33;2.13;;;0.70;;
72194;SDS011;60095;50.180;9.032;2022-08-11T10:20:01;1.13;;;1.02;;
72194;SDS011;60095;50.180;9.032;2022-08-11T10:22:32;4.38;;;2.22;;
72194;SDS011;60095;50.180;9.032;2022-08-11T10:25:16;1.45;;;1.00;;
72194;SDS011;60095;50.180;9.032;2022-08-11T10:28:02;1.17;;;1.08;;
72194;SDS011;60095;50.180;9.032;2022-08-11T10:30:29;1.30;;;0.98;;
72194;SDS011;60095;50.180;9.032;2022-08-11T10:33:14;1.85;;;1.00;;
72194;SDS011;60095;50.180;9.032;2022-08-11T10:35:59;1.02;;;0.57;;
72194;SDS011;60095;50.180;9.032;2022-08-11T10:38:26;2.42;;;1.85;;
72194;SDS011;60095;50.180;9.032;2022-08-11T10:40:52;1.92;;;1.13;;
72194;SDS011;60095;50.180;9.032;2022-08-11T10:43:34;2.35;;;1.23;;
72194;SDS011;60095;50.180;9.032;2022-08-11T10:46:02;2.17;;;0.85;;
72194;SDS011;60095;50.180;9.032;2022-08-11T10:48:47;1.15;;;0.90;;
72194;SDS011;60095;50.180;9.032;2022-08-11T10:51:14;2.35;;;1.23;;
72194;SDS011;60095;50.180;9.032;2022-08-11T10:53:42;2.65;;;1.17;;
72194;SDS011;60095;50.180;9.032;2022-08-11T10:56:27;3.22;;;0.90;;
72194;SDS011;60095;50.180;9.032;2022-08-11T10:59:11;2.03;;;1.23;;
72194;SDS011;60095;50.180;9.032;2022-08-11T11:01:40;1.00;;;0.80;;
72194;SDS011;60095;50.180;9.032;2022-08-11T11:04:11;1.70;;;1.42;;
72194;SDS011;60095;50.180;9.032;2022-08-11T11:06:40;1.73;;;1.08;;
72194;SDS011;60095;50.180;9.032;2022-08-11T11:09:10;2.17;;;1.25;;
72194;SDS011;60095;50.180;9.032;2022-08-11T11:11:38;3.20;;;0.70;;
72194;SDS011;60095;50.180;9.032;2022-08-11T11:14:26;0.60;;;0.60;;
72194;SDS011;60095;50.180;9.032;2022-08-11T11:17:11;1.25;;;0.90;;
72194;SDS011;60095;50.180;9.032;2022-08-11T11:19:57;1.10;;;0.95;;
72194;SDS011;60095;50.180;9.032;2022-08-11T11:22:25;2.33;;;1.38;;
72194;SDS011;60095;50.180;9.032;2022-08-11T11:25:10;3.55;;;1.63;;
72194;SDS011;60095;50.180;9.032;2022-08-11T11:27:44;2.03;;;1.30;;
72194;SDS011;60095;50.180;9.032;2022-08-11T11:30:13;1.83;;;1.30;;
72194;SDS011;60095;50.180;9.032;2022-08-11T11:32:41;3.55;;;1.90;;
72194;SDS011;60095;50.180;9.032;2022-08-11T11:35:12;3.00;;;1.17;;
72194;SDS011;60095;50.180;9.032;2022-08-11T11:37:42;2.55;;;1.45;;
72194;SDS011;60095;50.180;9.032;2022-08-11T11:40:10;1.55;;;0.95;;
72194;SDS011;60095;50.180;9.032;2022-08-11T11:42:38;1.15;;;0.88;;
72194;SDS011;60095;50.180;9.032;2022-08-11T11:45:05;2.13;;;1.33;;
72194;SDS011;60095;50.180;9.032;2022-08-11T11:47:32;1.95;;;1.08;;
72194;SDS011;60095;50.180;9.032;2022-08-11T11:50:01;2.13;;;1.25;;
72194;SDS011;60095;50.180;9.032;2022-08-11T11:52:29;9.35;;;1.98;;
72194;SDS011;60095;50.180;9.032;2022-08-11T11:54:56;8.52;;;1.58;;
72194;SDS011;60095;50.180;9.032;2022-08-11T11:57:24;5.95;;;1.75;;
72194;SDS011;60095;50.180;9.032;2022-08-11T12:00:09;2.25;;;1.05;;
72194;SDS011;60095;50.180;9.032;2022-08-11T12:03:00;1.83;;;1.40;;
72194;SDS011;60095;50.180;9.032;2022-08-11T12:05:27;1.42;;;1.20;;
72194;SDS011;60095;50.180;9.032;2022-08-11T12:07:57;1.63;;;1.20;;
72194;SDS011;60095;50.180;9.032;2022-08-11T12:10:38;1.05;;;0.55;;
72194;SDS011;60095;50.180;9.032;2022-08-11T12:13:05;8.20;;;1.20;;
72194;SDS011;60095;50.180;9.032;2022-08-11T12:15:49;2.22;;;1.27;;
72194;SDS011;60095;50.180;9.032;2022-08-11T12:18:15;4.50;;;2.33;;
72194;SDS011;60095;50.180;9.032;2022-08-11T12:20:42;1.55;;;1.25;;
72194;SDS011;60095;50.180;9.032;2022-08-11T12:23:11;3.20;;;1.33;;
72194;SDS011;60095;50.180;9.032;2022-08-11T12:25:55;5.18;;;1.67;;
72194;SDS011;60095;50.180;9.032;2022-08-11T12:28:40;9.20;;;0.90;;
72194;SDS011;60095;50.180;9.032;2022-08-11T12:31:06;2.88;;;1.20;;
72194;SDS011;60095;50.180;9.032;2022-08-11T12:33:34;1.73;;;1.00;;
72194;SDS011;60095;50.180;9.032;2022-08-11T12:36:00;2.60;;;1.48;;
72194;SDS011;60095;50.180;9.032;2022-08-11T12:38:28;5.43;;;1.33;;
72194;SDS011;60095;50.180;9.032;2022-08-11T12:40:55;1.80;;;1.48;;
72194;SDS011;60095;50.180;9.032;2022-08-11T12:43:40;1.77;;;1.10;;
72194;SDS011;60095;50.180;9.032;2022-08-11T12:46:28;0.95;;;0.80;;
72194;SDS011;60095;50.180;9.032;2022-08-11T12:48:56;1.75;;;1.15;;
72194;SDS011;60095;50.180;9.032;2022-08-11T12:51:41;7.05;;;1.50;;
72194;SDS011;60095;50.180;9.032;2022-08-11T12:54:26;0.85;;;0.70;;
72194;SDS011;60095;50.180;9.032;2022-08-11T12:56:55;3.13;;;1.65;;
72194;SDS011;60095;50.180;9.032;2022-08-11T12:59:40;2.20;;;1.50;;
72194;SDS011;60095;50.180;9.032;2022-08-11T13:02:24;1.13;;;0.88;;
72194;SDS011;60095;50.180;9.032;2022-08-11T13:05:10;2.95;;;1.90;;
72194;SDS011;60095;50.180;9.032;2022-08-11T13:07:37;3.22;;;1.10;;
72194;SDS011;60095;50.180;9.032;2022-08-11T13:10:07;1.48;;;1.17;;
72194;SDS011;60095;50.180;9.032;2022-08-11T13:12:34;2.97;;;1.00;;
72194;SDS011;60095;50.180;9.032;2022-08-11T13:15:13;1.08;;;0.98;;
72194;SDS011;60095;50.180;9.032;2022-08-11T13:17:39;5.22;;;1.80;;
72194;SDS011;60095;50.180;9.032;2022-08-11T13:20:07;4.00;;;1.02;;
72194;SDS011;60095;50.180;9.032;2022-08-11T13:22:34;5.05;;;1.00;;
72194;SDS011;60095;50.180;9.032;2022-08-11T13:25:01;2.03;;;1.05;;
72194;SDS011;60095;50.180;9.032;2022-08-11T13:27:29;10.60;;;1.65;;
72194;SDS011;60095;50.180;9.032;2022-08-11T13:29:56;1.58;;;1.27;;
72194;SDS011;60095;50.180;9.032;2022-08-11T13:32:37;0.90;;;0.90;;
72194;SDS011;60095;50.180;9.032;2022-08-11T13:35:04;5.43;;;1.38;;
72194;SDS011;60095;50.180;9.032;2022-08-11T13:37:31;1.50;;;1.25;;
72194;SDS011;60095;50.180;9.032;2022-08-11T13:39:59;11.73;;;1.38;;
72194;SDS011;60095;50.180;9.032;2022-08-11T13:42:26;2.83;;;0.63;;
72194;SDS011;60095;50.180;9.032;2022-08-11T13:44:54;1.27;;;1.02;;
72194;SDS011;60095;50.180;9.032;2022-08-11T13:47:21;2.20;;;1.40;;
72194;SDS011;60095;50.180;9.032;2022-08-11T13:49:49;2.22;;;0.80;;
72194;SDS011;60095;50.180;9.032;2022-08-11T13:52:15;1.33;;;1.23;;
72194;SDS011;60095;50.180;9.032;2022-08-11T13:54:42;2.38;;;1.08;;
72194;SDS011;60095;50.180;9.032;2022-08-11T13:57:11;1.70;;;1.60;;
72194;SDS011;60095;50.180;9.032;2022-08-11T13:59:39;2.40;;;1.55;;
72194;SDS011;60095;50.180;9.032;2022-08-11T14:02:12;2.78;;;0.90;;
72194;SDS011;60095;50.180;9.032;2022-08-11T14:04:39;4.22;;;1.10;;
72194;SDS011;60095;50.180;9.032;2022-08-11T14:07:07;1.17;;;0.93;;
72194;SDS011;60095;50.180;9.032;2022-08-11T14:09:35;1.30;;;1.02;;
72194;SDS011;60095;50.180;9.032;2022-08-11T14:12:04;2.35;;;0.73;;
72194;SDS011;60095;50.180;9.032;2022-08-11T14:14:51;1.75;;;0.55;;
72194;SDS011;60095;50.180;9.032;2022-08-11T14:17:23;2.05;;;1.35;;
72194;SDS011;60095;50.180;9.032;2022-08-11T14:19:50;7.47;;;1.60;;
72194;SDS011;60095;50.180;9.032;2022-08-11T14:22:17;1.85;;;1.35;;
72194;SDS011;60095;50.180;9.032;2022-08-11T14:24:46;2.03;;;1.27;;
72194;SDS011;60095;50.180;9.032;2022-08-11T14:27:14;3.15;;;0.52;;
72194;SDS011;60095;50.180;9.032;2022-08-11T14:29:41;2.17;;;0.98;;
72194;SDS011;60095;50.180;9.032;2022-08-11T14:32:08;7.22;;;1.42;;
72194;SDS011;60095;50.180;9.032;2022-08-11T14:34:38;1.30;;;0.80;;
72194;SDS011;60095;50.180;9.032;2022-08-11T14:37:06;8.70;;;1.02;;
72194;SDS011;60095;50.180;9.032;2022-08-11T14:39:37;1.08;;;0.82;;
72194;SDS011;60095;50.180;9.032;2022-08-11T14:42:05;2.05;;;1.50;;
72194;SDS011;60095;50.180;9.032;2022-08-11T14:44:51;1.20;;;1.08;;
72194;SDS011;60095;50.180;9.032;2022-08-11T14:47:42;1.27;;;1.08;;
72194;SDS011;60095;50.180;9.032;2022-08-11T14:50:11;2.13;;;1.08;;
72194;SDS011;60095;50.180;9.032;2022-08-11T14:52:44;9.13;;;1.45;;
72194;SDS011;60095;50.180;9.032;2022-08-11T14:55:12;1.23;;;0.98;;
72194;SDS011;60095;50.180;9.032;2022-08-11T14:57:57;1.45;;;0.98;;
72194;SDS011;60095;50.180;9.032;2022-08-11T15:00:24;1.70;;;1.15;;
72194;SDS011;60095;50.180;9.032;2022-08-11T15:02:51;1.63;;;1.38;;
72194;SDS011;60095;50.180;9.032;2022-08-11T15:05:37;8.07;;;1.85;;
72194;SDS011;60095;50.180;9.032;2022-08-11T15:08:04;1.65;;;1.27;;
72194;SDS011;60095;50.180;9.032;2022-08-11T15:10:31;1.27;;;0.73;;
72194;SDS011;60095;50.180;9.032;2022-08-11T15:12:58;1.83;;;1.10;;
72194;SDS011;60095;50.180;9.032;2022-08-11T15:15:25;2.00;;;1.45;;
72194;SDS011;60095;50.180;9.032;2022-08-11T15:18:10;0.77;;;0.70;;
72194;SDS011;60095;50.180;9.032;2022-08-11T15:20:38;1.17;;;0.93;;
72194;SDS011;60095;50.180;9.032;2022-08-11T15:23:22;3.10;;;1.88;;
72194;SDS011;60095;50.180;9.032;2022-08-11T15:26:07;2.25;;;1.30;;
72194;SDS011;60095;50.180;9.032;2022-08-11T15:28:35;3.15;;;1.27;;
72194;SDS011;60095;50.180;9.032;2022-08-11T15:31:20;1.42;;;1.02;;
72194;SDS011;60095;50.180;9.032;2022-08-11T15:34:02;1.33;;;1.02;;
72194;SDS011;60095;50.180;9.032;2022-08-11T15:36:48;5.78;;;1.45;;
72194;SDS011;60095;50.180;9.032;2022-08-11T15:39:34;6.13;;;1.77;;
72194;SDS011;60095;50.180;9.032;2022-08-11T15:42:02;2.92;;;1.55;;
72194;SDS011;60095;50.180;9.032;2022-08-11T15:44:49;2.88;;;1.05;;
72194;SDS011;60095;50.180;9.032;2022-08-11T15:47:35;2.38;;;1.55;;
72194;SDS011;60095;50.180;9.032;2022-08-11T15:50:03;3.08;;;1.83;;
72194;SDS011;60095;50.180;9.032;2022-08-11T15:52:32;2.13;;;1.25;;
72194;SDS011;60095;50.180;9.032;2022-08-11T15:54:59;1.55;;;1.20;;
72194;SDS011;60095;50.180;9.032;2022-08-11T15:57:30;1.25;;;1.08;;
72194;SDS011;60095;50.180;9.032;2022-08-11T16:00:14;1.80;;;1.17;;
72194;SDS011;60095;50.180;9.032;2022-08-11T16:02:59;2.45;;;1.58;;
72194;SDS011;60095;50.180;9.032;2022-08-11T16:05:44;2.80;;;1.40;;
72194;SDS011;60095;50.180;9.032;2022-08-11T16:08:12;5.30;;;2.08;;
72194;SDS011;60095;50.180;9.032;2022-08-11T16:10:40;1.70;;;1.58;;
72194;SDS011;60095;50.180;9.032;2022-08-11T16:13:07;1.17;;;0.73;;
72194;SDS011;60095;50.180;9.032;2022-08-11T16:15:52;1.15;;;1.00;;
72194;SDS011;60095;50.180;9.032;2022-08-11T16:18:38;1.27;;;0.95;;
72194;SDS011;60095;50.180;9.032;2022-08-11T16:21:06;2.67;;;1.23;;
72194;SDS011;60095;50.180;9.032;2022-08-11T16:23:35;1.05;;;0.88;;
72194;SDS011;60095;50.180;9.032;2022-08-11T16:26:02;1.95;;;1.20;;
72194;SDS011;60095;50.180;9.032;2022-08-11T16:28:29;1.27;;;1.02;;